sensor_id;sensor_type;location;lat;lon;timestamp;P1;durP1;ratioP1;P2;durP2;ratioP2
6348;SDS011;3207;42.648;23.406;2022-08-24T00:00:20;1.95;;;1.63;;
6348;SDS011;3207;42.648;23.406;2022-08-24T00:02:47;3.35;;;1.45;;
6348;SDS011;3207;42.648;23.406;2022-08-24T00:05:14;5.32;;;1.83;;
6348;SDS011;3207;42.648;23.406;2022-08-24T00:07:42;2.13;;;1.45;;
6348;SDS011;3207;42.648;23.406;2022-08-24T00:10:09;4.32;;;1.95;;
6348;SDS011;3207;42.648;23.406;2022-08-24T00:12:37;3.78;;;1.42;;
6348;SDS011;3207;42.648;23.406;2022-08-24T00:15:05;1.80;;;1.20;;
6348;SDS011;3207;42.648;23.406;2022-08-24T00:17:35;2.83;;;1.15;;
6348;SDS011;3207;42.648;23.406;2022-08-24T00:20:02;1.70;;;1.35;;
6348;SDS011;3207;42.648;23.406;2022-08-24T00:22:30;1.17;;;1.08;;
6348;SDS011;3207;42.648;23.406;2022-08-24T00:24:57;6.28;;;1.55;;
6348;SDS011;3207;42.648;23.406;2022-08-24T00:27:23;1.98;;;1.10;;
6348;SDS011;3207;42.648;23.406;2022-08-24T00:29:50;2.20;;;1.25;;
6348;SDS011;3207;42.648;23.406;2022-08-24T00:32:16;3.67;;;1.30;;
6348;SDS011;3207;42.648;23.406;2022-08-24T00:34:45;3.33;;;1.30;;
6348;SDS011;3207;42.648;23.406;2022-08-24T00:37:11;1.77;;;1.35;;
6348;SDS011;3207;42.648;23.406;2022-08-24T00:39:38;1.85;;;1.25;;
6348;SDS011;3207;42.648;23.406;2022-08-24T00:42:04;4.18;;;1.40;;
6348;SDS011;3207;42.648;23.406;2022-08-24T00:44:31;3.28;;;1.40;;
6348;SDS011;3207;42.648;23.406;2022-08-24T00:46:59;3.60;;;1.40;;
6348;SDS011;3207;42.648;23.406;2022-08-24T00:49:29;2.97;;;1.30;;
6348;SDS011;3207;42.648;23.406;2022-08-24T00:52:04;3.15;;;1.13;;
6348;SDS011;3207;42.648;23.406;2022-08-24T00:54:36;3.75;;;1.40;;
6348;SDS011;3207;42.648;23.406;2022-08-24T00:57:06;1.40;;;1.10;;
6348;SDS011;3207;42.648;23.406;2022-08-24T00:59:37;9.60;;;1.25;;
6348;SDS011;3207;42.648;23.406;2022-08-24T01:02:09;2.45;;;0.93;;
6348;SDS011;3207;42.648;23.406;2022-08-24T01:04:40;2.25;;;1.23;;
6348;SDS011;3207;42.648;23.406;2022-08-24T01:07:11;4.25;;;1.20;;
6348;SDS011;3207;42.648;23.406;2022-08-24T01:09:38;1.08;;;0.90;;
6348;SDS011;3207;42.648;23.406;2022-08-24T01:12:04;0.85;;;0.70;;
6348;SDS011;3207;42.648;23.406;2022-08-24T01:14:32;0.85;;;0.80;;
6348;SDS011;3207;42.648;23.406;2022-08-24T01:16:59;2.05;;;1.00;;
6348;SDS011;3207;42.648;23.406;2022-08-24T01:19:44;0.98;;;0.90;;
6348;SDS011;3207;42.648;23.406;2022-08-24T01:25:05;2.65;;;1.35;;
6348;SDS011;3207;42.648;23.406;2022-08-24T01:27:32;2.03;;;1.30;;
6348;SDS011;3207;42.648;23.406;2022-08-24T01:30:00;2.35;;;1.17;;
6348;SDS011;3207;42.648;23.406;2022-08-24T01:32:28;1.50;;;1.13;;
6348;SDS011;3207;42.648;23.406;2022-08-24T01:34:55;3.58;;;1.50;;
6348;SDS011;3207;42.648;23.406;2022-08-24T01:37:23;1.95;;;1.20;;
6348;SDS011;3207;42.648;23.406;2022-08-24T01:39:51;2.20;;;1.10;;
6348;SDS011;3207;42.648;23.406;2022-08-24T01:42:21;2.20;;;1.15;;
6348;SDS011;3207;42.648;23.406;2022-08-24T01:44:47;1.30;;;1.00;;
6348;SDS011;3207;42.648;23.406;2022-08-24T01:47:15;2.83;;;1.10;;
6348;SDS011;3207;42.648;23.406;2022-08-24T01:49:42;0.88;;;0.88;;
6348;SDS011;3207;42.648;23.406;2022-08-24T01:52:16;3.85;;;1.10;;
6348;SDS011;3207;42.648;23.406;2022-08-24T01:54:45;1.65;;;1.30;;
6348;SDS011;3207;42.648;23.406;2022-08-24T01:57:12;1.88;;;1.20;;
6348;SDS011;3207;42.648;23.406;2022-08-24T01:59:40;1.40;;;1.30;;
6348;SDS011;3207;42.648;23.406;2022-08-24T02:02:08;1.83;;;0.90;;
6348;SDS011;3207;42.648;23.406;2022-08-24T02:04:39;3.10;;;1.20;;
6348;SDS011;3207;42.648;23.406;2022-08-24T02:07:06;2.78;;;1.08;;
6348;SDS011;3207;42.648;23.406;2022-08-24T02:09:33;3.13;;;1.30;;
6348;SDS011;3207;42.648;23.406;2022-08-24T02:12:01;2.90;;;1.17;;
6348;SDS011;3207;42.648;23.406;2022-08-24T02:14:28;6.22;;;1.00;;
6348;SDS011;3207;42.648;23.406;2022-08-24T02:16:57;4.65;;;1.20;;
6348;SDS011;3207;42.648;23.406;2022-08-24T02:19:24;6.35;;;1.45;;
6348;SDS011;3207;42.648;23.406;2022-08-24T02:21:51;2.13;;;1.60;;
6348;SDS011;3207;42.648;23.406;2022-08-24T02:24:18;2.95;;;1.60;;
6348;SDS011;3207;42.648;23.406;2022-08-24T02:26:45;1.60;;;1.10;;
6348;SDS011;3207;42.648;23.406;2022-08-24T02:29:11;6.32;;;1.60;;
6348;SDS011;3207;42.648;23.406;2022-08-24T02:31:38;6.38;;;1.17;;
6348;SDS011;3207;42.648;23.406;2022-08-24T02:34:06;1.45;;;1.30;;
6348;SDS011;3207;42.648;23.406;2022-08-24T02:36:33;3.78;;;1.05;;
6348;SDS011;3207;42.648;23.406;2022-08-24T02:39:00;4.40;;;1.23;;
6348;SDS011;3207;42.648;23.406;2022-08-24T02:41:26;6.32;;;1.33;;
6348;SDS011;3207;42.648;23.406;2022-08-24T02:43:54;2.00;;;0.90;;
6348;SDS011;3207;42.648;23.406;2022-08-24T02:46:22;1.58;;;0.93;;
6348;SDS011;3207;42.648;23.406;2022-08-24T02:48:50;2.20;;;1.00;;
6348;SDS011;3207;42.648;23.406;2022-08-24T02:51:19;2.13;;;1.08;;
6348;SDS011;3207;42.648;23.406;2022-08-24T02:53:47;4.50;;;1.20;;
6348;SDS011;3207;42.648;23.406;2022-08-24T02:56:14;4.90;;;1.60;;
6348;SDS011;3207;42.648;23.406;2022-08-24T02:58:41;5.57;;;1.40;;
6348;SDS011;3207;42.648;23.406;2022-08-24T03:01:08;3.00;;;1.65;;
6348;SDS011;3207;42.648;23.406;2022-08-24T03:03:35;2.60;;;1.70;;
6348;SDS011;3207;42.648;23.406;2022-08-24T03:06:03;1.92;;;1.23;;
6348;SDS011;3207;42.648;23.406;2022-08-24T03:08:31;2.95;;;1.85;;
6348;SDS011;3207;42.648;23.406;2022-08-24T03:10:57;3.05;;;1.65;;
6348;SDS011;3207;42.648;23.406;2022-08-24T03:13:25;2.97;;;1.70;;
6348;SDS011;3207;42.648;23.406;2022-08-24T03:15:52;1.45;;;1.35;;
6348;SDS011;3207;42.648;23.406;2022-08-24T03:18:19;1.80;;;1.30;;
6348;SDS011;3207;42.648;23.406;2022-08-24T03:20:46;7.05;;;2.13;;
6348;SDS011;3207;42.648;23.406;2022-08-24T03:23:13;8.55;;;1.90;;
6348;SDS011;3207;42.648;23.406;2022-08-24T03:25:40;5.13;;;1.63;;
6348;SDS011;3207;42.648;23.406;2022-08-24T03:28:07;1.95;;;1.38;;
6348;SDS011;3207;42.648;23.406;2022-08-24T03:30:34;2.53;;;1.40;;
6348;SDS011;3207;42.648;23.406;2022-08-24T03:33:00;1.38;;;1.27;;
6348;SDS011;3207;42.648;23.406;2022-08-24T03:35:27;1.65;;;1.55;;
6348;SDS011;3207;42.648;23.406;2022-08-24T03:37:54;8.45;;;1.50;;
6348;SDS011;3207;42.648;23.406;2022-08-24T03:40:20;1.55;;;1.20;;
6348;SDS011;3207;42.648;23.406;2022-08-24T03:42:49;2.83;;;1.35;;
6348;SDS011;3207;42.648;23.406;2022-08-24T03:45:15;1.80;;;1.52;;
6348;SDS011;3207;42.648;23.406;2022-08-24T03:47:42;5.95;;;1.73;;
6348;SDS011;3207;42.648;23.406;2022-08-24T03:50:09;8.07;;;1.92;;
6348;SDS011;3207;42.648;23.406;2022-08-24T03:52:36;2.63;;;1.23;;
6348;SDS011;3207;42.648;23.406;2022-08-24T03:55:03;2.17;;;1.40;;
6348;SDS011;3207;42.648;23.406;2022-08-24T03:57:32;5.38;;;1.80;;
6348;SDS011;3207;42.648;23.406;2022-08-24T04:00:00;8.10;;;1.83;;
6348;SDS011;3207;42.648;23.406;2022-08-24T04:02:28;2.58;;;1.38;;
6348;SDS011;3207;42.648;23.406;2022-08-24T04:04:54;3.28;;;1.55;;
6348;SDS011;3207;42.648;23.406;2022-08-24T04:07:21;1.52;;;1.35;;
6348;SDS011;3207;42.648;23.406;2022-08-24T04:09:48;3.25;;;1.20;;
6348;SDS011;3207;42.648;23.406;2022-08-24T04:12:15;4.03;;;1.15;;
6348;SDS011;3207;42.648;23.406;2022-08-24T04:14:41;3.95;;;0.98;;
6348;SDS011;3207;42.648;23.406;2022-08-24T04:17:10;5.35;;;1.65;;
6348;SDS011;3207;42.648;23.406;2022-08-24T04:19:36;4.53;;;1.90;;
6348;SDS011;3207;42.648;23.406;2022-08-24T04:22:21;3.90;;;1.65;;
6348;SDS011;3207;42.648;23.406;2022-08-24T04:24:48;1.23;;;1.13;;
6348;SDS011;3207;42.648;23.406;2022-08-24T04:27:14;1.70;;;1.60;;
6348;SDS011;3207;42.648;23.406;2022-08-24T04:29:41;2.28;;;1.55;;
6348;SDS011;3207;42.648;23.406;2022-08-24T04:32:09;8.02;;;1.35;;
6348;SDS011;3207;42.648;23.406;2022-08-24T04:34:36;2.38;;;1.30;;
6348;SDS011;3207;42.648;23.406;2022-08-24T04:37:03;2.78;;;1.40;;
6348;SDS011;3207;42.648;23.406;2022-08-24T04:39:30;1.42;;;1.20;;
6348;SDS011;3207;42.648;23.406;2022-08-24T04:41:57;3.40;;;1.45;;
6348;SDS011;3207;42.648;23.406;2022-08-24T04:44:24;2.75;;;1.92;;
6348;SDS011;3207;42.648;23.406;2022-08-24T04:46:51;8.32;;;1.58;;
6348;SDS011;3207;42.648;23.406;2022-08-24T04:49:19;1.77;;;1.30;;
6348;SDS011;3207;42.648;23.406;2022-08-24T04:51:46;3.53;;;1.30;;
6348;SDS011;3207;42.648;23.406;2022-08-24T04:54:12;6.28;;;1.55;;
6348;SDS011;3207;42.648;23.406;2022-08-24T04:56:39;1.83;;;1.10;;
6348;SDS011;3207;42.648;23.406;2022-08-24T04:59:05;2.17;;;1.50;;
6348;SDS011;3207;42.648;23.406;2022-08-24T05:01:32;3.80;;;1.92;;
6348;SDS011;3207;42.648;23.406;2022-08-24T05:03:59;4.35;;;1.48;;
6348;SDS011;3207;42.648;23.406;2022-08-24T05:06:28;4.45;;;1.30;;
6348;SDS011;3207;42.648;23.406;2022-08-24T05:08:56;2.40;;;1.35;;
6348;SDS011;3207;42.648;23.406;2022-08-24T05:11:24;2.55;;;1.55;;
6348;SDS011;3207;42.648;23.406;2022-08-24T05:13:51;2.50;;;1.77;;
6348;SDS011;3207;42.648;23.406;2022-08-24T05:16:19;5.13;;;1.73;;
6348;SDS011;3207;42.648;23.406;2022-08-24T05:18:45;5.20;;;2.45;;
6348;SDS011;3207;42.648;23.406;2022-08-24T05:21:14;3.33;;;1.42;;
6348;SDS011;3207;42.648;23.406;2022-08-24T05:23:44;3.30;;;2.00;;
6348;SDS011;3207;42.648;23.406;2022-08-24T05:26:12;3.40;;;1.83;;
6348;SDS011;3207;42.648;23.406;2022-08-24T05:28:40;2.28;;;2.05;;
6348;SDS011;3207;42.648;23.406;2022-08-24T05:31:08;2.80;;;1.85;;
6348;SDS011;3207;42.648;23.406;2022-08-24T05:33:36;3.75;;;1.73;;
6348;SDS011;3207;42.648;23.406;2022-08-24T05:36:04;1.90;;;1.63;;
6348;SDS011;3207;42.648;23.406;2022-08-24T05:38:32;2.38;;;2.17;;
6348;SDS011;3207;42.648;23.406;2022-08-24T05:41:04;2.35;;;2.15;;
6348;SDS011;3207;42.648;23.406;2022-08-24T05:43:30;4.20;;;2.20;;
6348;SDS011;3207;42.648;23.406;2022-08-24T05:45:57;4.80;;;1.80;;
6348;SDS011;3207;42.648;23.406;2022-08-24T05:48:24;4.82;;;2.08;;
6348;SDS011;3207;42.648;23.406;2022-08-24T05:50:51;2.47;;;1.52;;
6348;SDS011;3207;42.648;23.406;2022-08-24T05:53:18;3.70;;;1.45;;
6348;SDS011;3207;42.648;23.406;2022-08-24T05:55:45;3.10;;;1.73;;
6348;SDS011;3207;42.648;23.406;2022-08-24T05:58:13;2.15;;;1.67;;
6348;SDS011;3207;42.648;23.406;2022-08-24T06:00:40;3.05;;;2.22;;
6348;SDS011;3207;42.648;23.406;2022-08-24T06:03:09;3.13;;;2.00;;
6348;SDS011;3207;42.648;23.406;2022-08-24T06:05:37;3.17;;;1.83;;
6348;SDS011;3207;42.648;23.406;2022-08-24T06:08:05;6.35;;;2.28;;
6348;SDS011;3207;42.648;23.406;2022-08-24T06:10:31;2.38;;;2.17;;
6348;SDS011;3207;42.648;23.406;2022-08-24T06:13:04;5.78;;;2.38;;
6348;SDS011;3207;42.648;23.406;2022-08-24T06:15:34;4.60;;;2.05;;
6348;SDS011;3207;42.648;23.406;2022-08-24T06:18:00;6.05;;;2.85;;
6348;SDS011;3207;42.648;23.406;2022-08-24T06:20:27;5.03;;;2.67;;
6348;SDS011;3207;42.648;23.406;2022-08-24T06:22:54;7.22;;;2.35;;
6348;SDS011;3207;42.648;23.406;2022-08-24T06:25:20;6.80;;;3.13;;
6348;SDS011;3207;42.648;23.406;2022-08-24T06:28:05;5.43;;;2.13;;
6348;SDS011;3207;42.648;23.406;2022-08-24T06:30:31;3.75;;;2.58;;
6348;SDS011;3207;42.648;23.406;2022-08-24T06:33:00;3.35;;;2.22;;
6348;SDS011;3207;42.648;23.406;2022-08-24T06:35:27;5.20;;;2.58;;
6348;SDS011;3207;42.648;23.406;2022-08-24T06:37:54;2.88;;;2.20;;
6348;SDS011;3207;42.648;23.406;2022-08-24T06:40:21;4.75;;;1.88;;
6348;SDS011;3207;42.648;23.406;2022-08-24T06:42:49;2.72;;;2.00;;
6348;SDS011;3207;42.648;23.406;2022-08-24T06:45:16;5.07;;;2.10;;
6348;SDS011;3207;42.648;23.406;2022-08-24T06:47:43;6.28;;;1.90;;
6348;SDS011;3207;42.648;23.406;2022-08-24T06:50:11;5.07;;;2.20;;
6348;SDS011;3207;42.648;23.406;2022-08-24T06:52:37;2.60;;;1.80;;
6348;SDS011;3207;42.648;23.406;2022-08-24T06:55:04;4.10;;;2.03;;
6348;SDS011;3207;42.648;23.406;2022-08-24T06:57:32;2.70;;;1.45;;
6348;SDS011;3207;42.648;23.406;2022-08-24T06:59:59;2.22;;;1.60;;
6348;SDS011;3207;42.648;23.406;2022-08-24T07:02:25;4.60;;;1.85;;
6348;SDS011;3207;42.648;23.406;2022-08-24T07:04:52;3.42;;;2.20;;
6348;SDS011;3207;42.648;23.406;2022-08-24T07:07:20;2.42;;;1.67;;
6348;SDS011;3207;42.648;23.406;2022-08-24T07:09:47;2.35;;;1.48;;
6348;SDS011;3207;42.648;23.406;2022-08-24T07:12:14;1.77;;;1.67;;
6348;SDS011;3207;42.648;23.406;2022-08-24T07:14:40;3.50;;;1.70;;
6348;SDS011;3207;42.648;23.406;2022-08-24T07:17:07;2.90;;;1.58;;
6348;SDS011;3207;42.648;23.406;2022-08-24T07:19:33;2.17;;;1.80;;
6348;SDS011;3207;42.648;23.406;2022-08-24T07:22:00;2.20;;;2.03;;
6348;SDS011;3207;42.648;23.406;2022-08-24T07:24:28;3.67;;;1.90;;
6348;SDS011;3207;42.648;23.406;2022-08-24T07:26:55;4.15;;;1.90;;
6348;SDS011;3207;42.648;23.406;2022-08-24T07:29:21;3.78;;;1.90;;
6348;SDS011;3207;42.648;23.406;2022-08-24T07:31:48;2.80;;;1.98;;
6348;SDS011;3207;42.648;23.406;2022-08-24T07:34:15;2.20;;;1.65;;
6348;SDS011;3207;42.648;23.406;2022-08-24T07:36:41;3.20;;;1.63;;
6348;SDS011;3207;42.648;23.406;2022-08-24T07:39:08;4.25;;;2.00;;
6348;SDS011;3207;42.648;23.406;2022-08-24T07:41:38;3.05;;;1.92;;
6348;SDS011;3207;42.648;23.406;2022-08-24T07:44:06;6.90;;;2.35;;
6348;SDS011;3207;42.648;23.406;2022-08-24T07:46:34;2.05;;;1.85;;
6348;SDS011;3207;42.648;23.406;2022-08-24T07:49:01;3.20;;;2.28;;
6348;SDS011;3207;42.648;23.406;2022-08-24T07:51:28;5.53;;;2.10;;
6348;SDS011;3207;42.648;23.406;2022-08-24T07:53:55;3.08;;;2.13;;
6348;SDS011;3207;42.648;23.406;2022-08-24T07:56:22;3.40;;;2.15;;
6348;SDS011;3207;42.648;23.406;2022-08-24T07:58:49;3.25;;;2.17;;
6348;SDS011;3207;42.648;23.406;2022-08-24T08:01:16;2.80;;;2.42;;
6348;SDS011;3207;42.648;23.406;2022-08-24T08:03:43;2.90;;;2.50;;
6348;SDS011;3207;42.648;23.406;2022-08-24T08:06:10;2.38;;;2.13;;
6348;SDS011;3207;42.648;23.406;2022-08-24T08:08:37;6.97;;;2.40;;
6348;SDS011;3207;42.648;23.406;2022-08-24T08:11:06;2.97;;;2.55;;
6348;SDS011;3207;42.648;23.406;2022-08-24T08:13:34;5.22;;;2.80;;
6348;SDS011;3207;42.648;23.406;2022-08-24T08:16:02;2.53;;;2.20;;
6348;SDS011;3207;42.648;23.406;2022-08-24T08:18:30;2.92;;;2.38;;
6348;SDS011;3207;42.648;23.406;2022-08-24T08:20:57;3.88;;;2.78;;
6348;SDS011;3207;42.648;23.406;2022-08-24T08:23:24;3.15;;;2.75;;
6348;SDS011;3207;42.648;23.406;2022-08-24T08:26:11;3.10;;;2.00;;
6348;SDS011;3207;42.648;23.406;2022-08-24T08:28:40;3.15;;;2.65;;
6348;SDS011;3207;42.648;23.406;2022-08-24T08:31:08;4.72;;;2.67;;
6348;SDS011;3207;42.648;23.406;2022-08-24T08:33:35;4.47;;;2.33;;
6348;SDS011;3207;42.648;23.406;2022-08-24T08:36:03;3.85;;;2.22;;
6348;SDS011;3207;42.648;23.406;2022-08-24T08:38:32;5.05;;;2.85;;
6348;SDS011;3207;42.648;23.406;2022-08-24T08:41:03;3.92;;;2.90;;
6348;SDS011;3207;42.648;23.406;2022-08-24T08:43:47;3.75;;;3.25;;
6348;SDS011;3207;42.648;23.406;2022-08-24T08:46:26;3.55;;;2.85;;
6348;SDS011;3207;42.648;23.406;2022-08-24T08:54:54;3.72;;;3.00;;
6348;SDS011;3207;42.648;23.406;2022-08-24T08:57:43;5.90;;;3.20;;
6348;SDS011;3207;42.648;23.406;2022-08-24T09:00:17;10.70;;;3.40;;
6348;SDS011;3207;42.648;23.406;2022-08-24T09:06:05;4.05;;;3.60;;
6348;SDS011;3207;42.648;23.406;2022-08-24T09:08:50;3.10;;;2.80;;
6348;SDS011;3207;42.648;23.406;2022-08-24T09:11:35;5.03;;;2.83;;
6348;SDS011;3207;42.648;23.406;2022-08-24T09:17:12;3.95;;;2.97;;
6348;SDS011;3207;42.648;23.406;2022-08-24T09:19:58;3.75;;;3.38;;
6348;SDS011;3207;42.648;23.406;2022-08-24T09:22:40;3.35;;;3.00;;
6348;SDS011;3207;42.648;23.406;2022-08-24T09:25:15;4.15;;;3.00;;
6348;SDS011;3207;42.648;23.406;2022-08-24T09:27:52;3.50;;;2.97;;
6348;SDS011;3207;42.648;23.406;2022-08-24T09:30:31;3.58;;;2.70;;
6348;SDS011;3207;42.648;23.406;2022-08-24T09:33:08;5.72;;;3.10;;
6348;SDS011;3207;42.648;23.406;2022-08-24T09:35:59;4.60;;;3.38;;
6348;SDS011;3207;42.648;23.406;2022-08-24T09:38:41;3.17;;;2.97;;
6348;SDS011;3207;42.648;23.406;2022-08-24T09:44:42;3.05;;;2.85;;
6348;SDS011;3207;42.648;23.406;2022-08-24T09:50:40;3.42;;;3.15;;
6348;SDS011;3207;42.648;23.406;2022-08-24T09:53:35;3.58;;;3.25;;
6348;SDS011;3207;42.648;23.406;2022-08-24T09:56:22;3.55;;;3.20;;
6348;SDS011;3207;42.648;23.406;2022-08-24T09:59:10;3.70;;;3.25;;
6348;SDS011;3207;42.648;23.406;2022-08-24T10:01:50;4.78;;;3.42;;
6348;SDS011;3207;42.648;23.406;2022-08-24T10:04:31;3.50;;;3.13;;
6348;SDS011;3207;42.648;23.406;2022-08-24T10:07:07;4.20;;;3.38;;
6348;SDS011;3207;42.648;23.406;2022-08-24T10:09:54;3.47;;;3.20;;
6348;SDS011;3207;42.648;23.406;2022-08-24T10:12:32;3.42;;;3.08;;
6348;SDS011;3207;42.648;23.406;2022-08-24T10:15:08;4.18;;;3.78;;
6348;SDS011;3207;42.648;23.406;2022-08-24T10:17:40;3.85;;;3.47;;
6348;SDS011;3207;42.648;23.406;2022-08-24T10:20:19;3.13;;;2.92;;
6348;SDS011;3207;42.648;23.406;2022-08-24T10:22:57;3.58;;;3.28;;
6348;SDS011;3207;42.648;23.406;2022-08-24T10:25:38;3.50;;;3.17;;
6348;SDS011;3207;42.648;23.406;2022-08-24T10:31:13;3.65;;;3.33;;
6348;SDS011;3207;42.648;23.406;2022-08-24T10:33:49;4.85;;;3.53;;
6348;SDS011;3207;42.648;23.406;2022-08-24T10:36:30;3.50;;;3.20;;
6348;SDS011;3207;42.648;23.406;2022-08-24T10:42:24;4.30;;;3.17;;
6348;SDS011;3207;42.648;23.406;2022-08-24T10:45:29;4.13;;;3.72;;
6348;SDS011;3207;42.648;23.406;2022-08-24T10:48:29;4.07;;;3.78;;
6348;SDS011;3207;42.648;23.406;2022-08-24T10:51:15;3.90;;;3.50;;
6348;SDS011;3207;42.648;23.406;2022-08-24T10:53:54;5.00;;;3.67;;
6348;SDS011;3207;42.648;23.406;2022-08-24T10:56:26;4.07;;;3.75;;
6348;SDS011;3207;42.648;23.406;2022-08-24T10:59:04;3.72;;;3.40;;
6348;SDS011;3207;42.648;23.406;2022-08-24T11:01:41;3.90;;;3.53;;
6348;SDS011;3207;42.648;23.406;2022-08-24T11:04:27;6.47;;;3.28;;
6348;SDS011;3207;42.648;23.406;2022-08-24T11:07:03;5.93;;;3.45;;
6348;SDS011;3207;42.648;23.406;2022-08-24T11:09:41;4.03;;;3.60;;
6348;SDS011;3207;42.648;23.406;2022-08-24T11:12:15;4.45;;;3.78;;
6348;SDS011;3207;42.648;23.406;2022-08-24T11:14:48;4.28;;;3.88;;
6348;SDS011;3207;42.648;23.406;2022-08-24T11:17:15;4.72;;;3.92;;
6348;SDS011;3207;42.648;23.406;2022-08-24T11:19:43;6.38;;;4.18;;
6348;SDS011;3207;42.648;23.406;2022-08-24T11:22:21;4.03;;;3.63;;
6348;SDS011;3207;42.648;23.406;2022-08-24T11:24:54;3.97;;;3.58;;
6348;SDS011;3207;42.648;23.406;2022-08-24T11:27:26;4.28;;;3.90;;
6348;SDS011;3207;42.648;23.406;2022-08-24T11:29:59;4.88;;;3.72;;
6348;SDS011;3207;42.648;23.406;2022-08-24T11:32:28;4.32;;;3.90;;
6348;SDS011;3207;42.648;23.406;2022-08-24T11:35:02;8.48;;;4.13;;
6348;SDS011;3207;42.648;23.406;2022-08-24T11:37:34;4.47;;;4.07;;
6348;SDS011;3207;42.648;23.406;2022-08-24T11:40:03;3.95;;;3.65;;
6348;SDS011;3207;42.648;23.406;2022-08-24T11:42:33;4.68;;;4.28;;
6348;SDS011;3207;42.648;23.406;2022-08-24T11:45:09;4.28;;;3.88;;
6348;SDS011;3207;42.648;23.406;2022-08-24T11:47:43;7.20;;;4.28;;
6348;SDS011;3207;42.648;23.406;2022-08-24T11:50:26;3.67;;;3.42;;
6348;SDS011;3207;42.648;23.406;2022-08-24T11:53:02;8.57;;;4.15;;
6348;SDS011;3207;42.648;23.406;2022-08-24T11:55:37;4.63;;;4.10;;
6348;SDS011;3207;42.648;23.406;2022-08-24T11:58:10;4.70;;;4.30;;
6348;SDS011;3207;42.648;23.406;2022-08-24T12:00:44;5.15;;;4.25;;
6348;SDS011;3207;42.648;23.406;2022-08-24T12:03:21;6.15;;;3.80;;
6348;SDS011;3207;42.648;23.406;2022-08-24T12:06:06;4.30;;;3.50;;
6348;SDS011;3207;42.648;23.406;2022-08-24T12:08:45;7.28;;;4.20;;
6348;SDS011;3207;42.648;23.406;2022-08-24T12:11:22;4.32;;;3.92;;
6348;SDS011;3207;42.648;23.406;2022-08-24T12:13:58;4.43;;;4.07;;
6348;SDS011;3207;42.648;23.406;2022-08-24T12:16:32;4.53;;;4.13;;
6348;SDS011;3207;42.648;23.406;2022-08-24T12:19:04;4.88;;;4.30;;
6348;SDS011;3207;42.648;23.406;2022-08-24T12:21:35;6.15;;;4.32;;
6348;SDS011;3207;42.648;23.406;2022-08-24T12:24:06;4.93;;;4.40;;
6348;SDS011;3207;42.648;23.406;2022-08-24T12:26:34;8.20;;;4.10;;
6348;SDS011;3207;42.648;23.406;2022-08-24T12:29:06;5.07;;;3.65;;
6348;SDS011;3207;42.648;23.406;2022-08-24T12:31:39;6.22;;;4.60;;
6348;SDS011;3207;42.648;23.406;2022-08-24T12:34:10;4.82;;;4.35;;
6348;SDS011;3207;42.648;23.406;2022-08-24T12:36:50;4.38;;;4.00;;
6348;SDS011;3207;42.648;23.406;2022-08-24T12:39:25;6.20;;;4.57;;
6348;SDS011;3207;42.648;23.406;2022-08-24T12:41:57;4.20;;;3.90;;
6348;SDS011;3207;42.648;23.406;2022-08-24T12:44:34;5.35;;;3.90;;
6348;SDS011;3207;42.648;23.406;2022-08-24T12:47:08;4.63;;;3.97;;
6348;SDS011;3207;42.648;23.406;2022-08-24T12:49:37;4.55;;;4.15;;
6348;SDS011;3207;42.648;23.406;2022-08-24T12:55:16;4.10;;;3.67;;
6348;SDS011;3207;42.648;23.406;2022-08-24T12:57:56;4.07;;;3.78;;
6348;SDS011;3207;42.648;23.406;2022-08-24T13:00:31;4.53;;;4.10;;
6348;SDS011;3207;42.648;23.406;2022-08-24T13:03:03;4.32;;;3.90;;
6348;SDS011;3207;42.648;23.406;2022-08-24T13:05:37;4.30;;;3.90;;
6348;SDS011;3207;42.648;23.406;2022-08-24T13:08:11;3.97;;;3.58;;
6348;SDS011;3207;42.648;23.406;2022-08-24T13:10:44;4.93;;;4.45;;
6348;SDS011;3207;42.648;23.406;2022-08-24T13:13:20;4.90;;;4.40;;
6348;SDS011;3207;42.648;23.406;2022-08-24T13:16:04;4.25;;;3.85;;
6348;SDS011;3207;42.648;23.406;2022-08-24T13:21:48;4.55;;;4.15;;
6348;SDS011;3207;42.648;23.406;2022-08-24T13:30:50;4.82;;;4.35;;
6348;SDS011;3207;42.648;23.406;2022-08-24T13:33:28;5.07;;;4.10;;
6348;SDS011;3207;42.648;23.406;2022-08-24T13:36:00;4.72;;;4.30;;
6348;SDS011;3207;42.648;23.406;2022-08-24T13:38:42;4.70;;;4.22;;
6348;SDS011;3207;42.648;23.406;2022-08-24T13:41:39;4.57;;;4.28;;
6348;SDS011;3207;42.648;23.406;2022-08-24T13:44:22;4.75;;;4.35;;
6348;SDS011;3207;42.648;23.406;2022-08-24T13:46:58;4.93;;;4.47;;
6348;SDS011;3207;42.648;23.406;2022-08-24T13:49:36;8.65;;;4.80;;
6348;SDS011;3207;42.648;23.406;2022-08-24T13:52:13;4.93;;;4.38;;
6348;SDS011;3207;42.648;23.406;2022-08-24T13:54:51;5.45;;;4.93;;
6348;SDS011;3207;42.648;23.406;2022-08-24T14:03:18;4.88;;;4.10;;
6348;SDS011;3207;42.648;23.406;2022-08-24T14:06:17;4.90;;;4.15;;
6348;SDS011;3207;42.648;23.406;2022-08-24T14:08:53;5.90;;;4.65;;
6348;SDS011;3207;42.648;23.406;2022-08-24T14:11:34;5.35;;;4.85;;
6348;SDS011;3207;42.648;23.406;2022-08-24T14:14:07;6.00;;;4.95;;
6348;SDS011;3207;42.648;23.406;2022-08-24T14:16:44;5.55;;;5.05;;
6348;SDS011;3207;42.648;23.406;2022-08-24T14:19:40;6.38;;;4.90;;
6348;SDS011;3207;42.648;23.406;2022-08-24T14:22:17;9.55;;;5.25;;
6348;SDS011;3207;42.648;23.406;2022-08-24T14:25:00;5.43;;;5.03;;
6348;SDS011;3207;42.648;23.406;2022-08-24T14:27:40;5.55;;;5.05;;
6348;SDS011;3207;42.648;23.406;2022-08-24T14:33:11;5.78;;;5.28;;
6348;SDS011;3207;42.648;23.406;2022-08-24T14:35:44;6.00;;;4.68;;
6348;SDS011;3207;42.648;23.406;2022-08-24T14:38:31;5.72;;;5.32;;
6348;SDS011;3207;42.648;23.406;2022-08-24T14:41:13;5.80;;;4.80;;
6348;SDS011;3207;42.648;23.406;2022-08-24T14:43:52;5.95;;;5.28;;
6348;SDS011;3207;42.648;23.406;2022-08-24T14:46:32;5.15;;;4.75;;
6348;SDS011;3207;42.648;23.406;2022-08-24T14:49:08;7.25;;;5.70;;
6348;SDS011;3207;42.648;23.406;2022-08-24T14:51:46;5.63;;;5.22;;
6348;SDS011;3207;42.648;23.406;2022-08-24T14:54:24;6.15;;;5.65;;
6348;SDS011;3207;42.648;23.406;2022-08-24T14:57:04;6.97;;;6.30;;
6348;SDS011;3207;42.648;23.406;2022-08-24T14:59:47;8.10;;;5.00;;
6348;SDS011;3207;42.648;23.406;2022-08-24T15:02:35;5.97;;;5.38;;
6348;SDS011;3207;42.648;23.406;2022-08-24T15:05:19;6.55;;;5.95;;
6348;SDS011;3207;42.648;23.406;2022-08-24T15:07:54;6.18;;;5.65;;
6348;SDS011;3207;42.648;23.406;2022-08-24T15:10:23;6.35;;;5.43;;
6348;SDS011;3207;42.648;23.406;2022-08-24T15:12:54;6.05;;;5.43;;
6348;SDS011;3207;42.648;23.406;2022-08-24T15:15:27;6.18;;;5.40;;
6348;SDS011;3207;42.648;23.406;2022-08-24T15:17:59;5.75;;;5.18;;
6348;SDS011;3207;42.648;23.406;2022-08-24T15:20:38;5.53;;;5.03;;
6348;SDS011;3207;42.648;23.406;2022-08-24T15:23:12;5.82;;;5.32;;
6348;SDS011;3207;42.648;23.406;2022-08-24T15:25:47;5.55;;;5.15;;
6348;SDS011;3207;42.648;23.406;2022-08-24T15:28:21;5.88;;;5.25;;
6348;SDS011;3207;42.648;23.406;2022-08-24T15:30:55;6.55;;;5.95;;
6348;SDS011;3207;42.648;23.406;2022-08-24T15:33:24;6.63;;;5.22;;
6348;SDS011;3207;42.648;23.406;2022-08-24T15:36:03;5.78;;;5.28;;
6348;SDS011;3207;42.648;23.406;2022-08-24T15:38:32;6.40;;;5.90;;
6348;SDS011;3207;42.648;23.406;2022-08-24T15:41:03;5.95;;;5.45;;
6348;SDS011;3207;42.648;23.406;2022-08-24T15:43:31;6.00;;;5.43;;
6348;SDS011;3207;42.648;23.406;2022-08-24T15:46:01;5.88;;;5.25;;
6348;SDS011;3207;42.648;23.406;2022-08-24T15:48:28;6.20;;;5.50;;
6348;SDS011;3207;42.648;23.406;2022-08-24T15:50:56;5.53;;;5.03;;
6348;SDS011;3207;42.648;23.406;2022-08-24T15:53:32;5.43;;;4.95;;
6348;SDS011;3207;42.648;23.406;2022-08-24T15:56:24;5.68;;;5.18;;
6348;SDS011;3207;42.648;23.406;2022-08-24T15:59:04;5.65;;;5.13;;
6348;SDS011;3207;42.648;23.406;2022-08-24T16:01:34;5.95;;;5.30;;
6348;SDS011;3207;42.648;23.406;2022-08-24T16:04:39;5.57;;;5.10;;
6348;SDS011;3207;42.648;23.406;2022-08-24T16:07:14;5.43;;;5.03;;
6348;SDS011;3207;42.648;23.406;2022-08-24T16:09:59;5.57;;;5.07;;
6348;SDS011;3207;42.648;23.406;2022-08-24T16:12:26;7.90;;;4.90;;
6348;SDS011;3207;42.648;23.406;2022-08-24T16:14:55;5.88;;;5.30;;
6348;SDS011;3207;42.648;23.406;2022-08-24T16:17:38;6.60;;;5.30;;